Terminal Aerodrome Forecast
Issued by NWS

Home | Current Version | Previous Version | Text Only | Print | Product List | Glossary On
Versions: 1 2 3 4 5 6 7 8 9 10 11 12 13 14 15
000
FTUS42 KILM 011133
TAFCRE
TAF
KCRE 011133Z 0112/0212 VRB04KT P6SM SCT040 SCT100 BKN150
     FM011800 18008KT P6SM VCSH BKN060
     FM012100 19010KT P6SM SCT080
     FM020400 VRB03KT P6SM FEW080=

USA.gov is the U.S. government's official web portal to all federal, state and local government web resources and services.